createdAt,value
2023-05-10T00:00:46.296Z,83.5049
2023-05-10T00:01:47.490Z,83.3444
2023-05-10T00:02:49.952Z,82.5506
2023-05-10T00:03:52.224Z,83.3949
2023-05-10T00:04:54.420Z,83.1205
2023-05-10T00:05:56.793Z,82.9856
2023-05-10T00:06:59.597Z,82.7538
2023-05-10T00:08:01.499Z,84.0987
2023-05-10T00:09:03.820Z,85.2545
2023-05-10T00:10:06.089Z,85.9671
2023-05-10T00:11:09.711Z,85.6775
2023-05-10T00:12:11.045Z,85.2453
2023-05-10T00:13:13.570Z,84.4041
2023-05-10T00:14:17.253Z,84.0420
2023-05-10T00:15:17.855Z,82.4713
2023-05-10T00:16:20.106Z,81.7375
2023-05-10T00:17:22.412Z,81.5990
2023-05-10T00:18:24.800Z,82.8320
2023-05-10T00:19:27.666Z,83.6603
2023-05-10T00:20:30.136Z,83.5107
2023-05-10T00:21:31.810Z,82.7155
2023-05-10T00:22:36.195Z,82.8794
2023-05-10T00:23:36.628Z,83.1435
2023-05-10T00:24:39.966Z,82.6846
2023-05-10T00:25:41.967Z,82.5180
2023-05-10T00:26:44.138Z,82.2557
2023-05-10T00:27:46.690Z,81.9948
2023-05-10T00:28:48.322Z,82.2594
2023-05-10T00:29:50.438Z,81.8635
2023-05-10T00:30:54.914Z,80.6174
2023-05-10T00:31:56.611Z,79.1587
2023-05-10T00:32:57.652Z,79.4474
2023-05-10T00:33:59.963Z,80.8989
2023-05-10T00:35:04.432Z,82.0038
2023-05-10T00:36:05.342Z,81.6319
2023-05-10T00:37:07.565Z,81.4044
2023-05-10T00:38:09.678Z,81.2338
2023-05-10T00:39:11.802Z,81.3206
2023-05-10T00:40:14.420Z,81.6994
2023-05-10T00:41:16.149Z,81.8595
2023-05-10T00:42:18.905Z,80.9986
2023-05-10T00:43:21.145Z,80.3163
2023-05-10T00:44:23.122Z,80.0218
2023-05-10T00:45:26.871Z,79.9494
2023-05-10T00:46:28.222Z,80.3609
2023-05-10T00:47:30.965Z,79.8258
2023-05-10T00:48:33.658Z,80.9511
2023-05-10T00:49:35.036Z,82.9044
2023-05-10T00:50:37.152Z,83.6329
2023-05-10T00:51:39.642Z,83.9600
2023-05-10T00:52:42.715Z,84.7027
2023-05-10T00:53:44.580Z,84.2013
2023-05-10T00:54:46.478Z,84.3180
2023-05-10T00:55:48.829Z,83.9432
2023-05-10T00:56:51.391Z,83.5921
2023-05-10T00:57:54.598Z,82.2081
2023-05-10T00:58:56.640Z,81.6233
2023-05-10T00:59:58.149Z,82.6993
2023-05-10T01:01:01.205Z,82.7038
2023-05-10T01:02:02.944Z,81.5138
2023-05-10T01:03:05.390Z,81.2035
2023-05-10T01:04:07.718Z,82.5283
2023-05-10T01:05:10.128Z,83.0519
2023-05-10T01:06:12.954Z,82.7194
2023-05-10T01:07:16.182Z,82.1316
2023-05-10T01:08:17.959Z,81.4865
2023-05-10T01:09:19.238Z,82.0835
2023-05-10T01:10:21.610Z,81.8801
2023-05-10T01:11:23.882Z,80.6226
2023-05-10T01:12:26.419Z,80.3900
2023-05-10T01:13:29.109Z,79.6440
2023-05-10T01:14:31.319Z,79.8073
2023-05-10T01:15:33.219Z,81.2157
2023-05-10T01:16:36.691Z,81.7313
2023-05-10T01:17:39.902Z,81.7069
2023-05-10T01:18:40.797Z,82.3854
2023-05-10T01:19:42.656Z,80.9558
2023-05-10T01:20:44.872Z,81.2517
2023-05-10T01:21:48.185Z,82.0905
2023-05-10T01:22:50.151Z,82.2756
2023-05-10T01:23:53.160Z,81.7099
2023-05-10T01:24:54.569Z,79.6832
2023-05-10T01:25:56.593Z,79.8820
2023-05-10T01:26:58.904Z,81.8812
2023-05-10T01:28:01.269Z,82.4159
2023-05-10T01:29:04.385Z,82.2609
2023-05-10T01:30:21.776Z,81.8422
2023-05-10T01:31:08.821Z,81.5826
2023-05-10T01:32:10.718Z,81.5172
2023-05-10T01:33:13.396Z,81.5478
2023-05-10T01:34:15.622Z,81.7519
2023-05-10T01:35:17.804Z,80.8313
2023-05-10T01:36:20.157Z,80.4428
2023-05-10T01:37:22.607Z,79.4534
2023-05-10T01:38:24.768Z,79.5629
2023-05-10T01:39:27.170Z,80.2671
2023-05-10T01:40:29.694Z,80.0142
2023-05-10T01:41:31.665Z,80.5391
2023-05-10T01:42:34.445Z,80.3185
2023-05-10T01:43:36.508Z,80.7551
2023-05-10T01:44:38.973Z,80.4129
2023-05-10T01:45:41.112Z,79.7674
2023-05-10T01:46:43.451Z,79.1248
2023-05-10T01:47:46.029Z,78.6582
2023-05-10T01:48:48.019Z,78.4599
2023-05-10T01:49:50.453Z,78.7923
2023-05-10T01:50:52.865Z,79.5759
2023-05-10T01:51:55.018Z,78.8170
2023-05-10T01:52:57.490Z,78.0666
2023-05-10T01:53:59.879Z,78.4279
2023-05-10T01:55:02.114Z,79.3736
2023-05-10T01:56:04.427Z,80.2083
2023-05-10T01:57:07.163Z,80.0533
2023-05-10T01:58:09.109Z,79.4014
2023-05-10T01:59:12.134Z,78.9771
2023-05-10T02:00:14.702Z,78.9101
2023-05-10T02:01:16.387Z,78.0142
2023-05-10T02:02:18.519Z,77.6288
2023-05-10T02:03:20.798Z,77.5171
2023-05-10T02:04:23.075Z,77.4953
2023-05-10T02:05:25.408Z,77.3245
2023-05-10T02:06:27.765Z,78.8582
2023-05-10T02:07:31.079Z,79.5639
2023-05-10T02:08:32.426Z,79.3359
2023-05-10T02:09:34.851Z,78.4911
2023-05-10T02:10:37.071Z,78.9759
2023-05-10T02:11:39.618Z,79.4343
2023-05-10T02:12:41.918Z,80.4090
2023-05-10T02:13:44.116Z,81.6288
2023-05-10T02:14:46.382Z,80.2306
2023-05-10T02:15:48.692Z,79.6988
2023-05-10T02:16:51.231Z,80.3928
2023-05-10T02:17:53.382Z,80.4952
2023-05-10T02:18:56.167Z,80.7387
2023-05-10T02:19:58.066Z,81.0282
2023-05-10T02:21:00.356Z,81.4780
2023-05-10T02:22:02.999Z,80.5864
2023-05-10T02:23:05.180Z,79.9526
2023-05-10T02:24:08.302Z,81.0660
2023-05-10T02:25:10.315Z,82.0202
2023-05-10T02:26:12.077Z,82.2301
2023-05-10T02:27:14.511Z,81.1704
2023-05-10T02:28:16.922Z,80.8553
2023-05-10T02:29:19.236Z,80.1582
2023-05-10T02:30:22.022Z,81.8080
2023-05-10T02:31:23.764Z,81.9445
2023-05-10T02:32:26.064Z,81.6936
2023-05-10T02:33:29.124Z,81.0546
2023-05-10T02:34:30.947Z,81.7229
2023-05-10T02:35:33.039Z,81.9991
2023-05-10T02:36:35.825Z,81.6579
2023-05-10T02:37:37.868Z,81.4387
2023-05-10T02:38:40.240Z,81.0130
2023-05-10T02:39:42.673Z,79.6858
2023-05-10T02:40:44.772Z,78.9073
2023-05-10T02:41:47.039Z,78.9298
2023-05-10T02:42:49.973Z,79.6177
2023-05-10T02:43:51.770Z,79.0822
2023-05-10T02:44:54.487Z,79.5619
2023-05-10T02:45:56.406Z,78.9014
2023-05-10T02:46:58.708Z,78.0712
2023-05-10T02:48:01.731Z,77.8969
2023-05-10T02:49:03.695Z,78.4318
2023-05-10T02:50:05.846Z,80.4403
2023-05-10T02:51:08.070Z,80.0873
2023-05-10T02:52:10.609Z,79.2329
2023-05-10T02:53:12.762Z,78.9079
2023-05-10T02:54:15.826Z,78.4821
2023-05-10T02:55:18.239Z,78.2340
2023-05-10T02:56:19.835Z,79.7449
2023-05-10T02:57:22.623Z,81.1108
2023-05-10T02:58:24.672Z,80.4245
2023-05-10T02:59:26.942Z,79.1491
2023-05-10T03:00:29.155Z,80.6898
2023-05-10T03:01:31.581Z,81.5394
2023-05-10T03:02:34.079Z,81.7048
2023-05-10T03:03:36.137Z,82.0758
2023-05-10T03:04:39.229Z,81.8058
2023-05-10T03:05:40.781Z,79.3891
2023-05-10T03:06:43.557Z,79.5573
2023-05-10T03:07:45.448Z,79.6462
2023-05-10T03:08:48.666Z,79.2657
2023-05-10T03:09:50.287Z,79.5911
2023-05-10T03:10:52.854Z,79.6975
2023-05-10T03:11:55.248Z,79.8354
2023-05-10T03:12:57.798Z,79.7283
2023-05-10T03:13:59.596Z,79.3073
2023-05-10T03:15:01.825Z,78.9983
2023-05-10T03:16:04.316Z,78.7395
2023-05-10T03:17:06.444Z,78.5439
2023-05-10T03:18:08.924Z,79.4238
2023-05-10T03:19:11.122Z,79.6958
2023-05-10T03:20:13.509Z,79.6552
2023-05-10T03:21:15.860Z,79.1590
2023-05-10T03:22:18.136Z,78.3975
2023-05-10T03:23:20.459Z,79.2749
2023-05-10T03:24:22.898Z,79.8430
2023-05-10T03:25:25.733Z,79.8256
2023-05-10T03:26:27.619Z,79.3738
2023-05-10T03:27:29.973Z,79.3471
2023-05-10T03:28:32.882Z,79.5535
2023-05-10T03:29:35.551Z,79.8281
2023-05-10T03:30:37.367Z,79.8462
2023-05-10T03:31:40.340Z,79.4272
2023-05-10T03:32:42.155Z,80.7184
2023-05-10T03:33:43.807Z,80.9919
2023-05-10T03:34:47.098Z,80.4362
2023-05-10T03:35:48.483Z,80.7894
2023-05-10T03:36:51.341Z,81.7067
2023-05-10T03:37:53.944Z,82.1654
2023-05-10T03:38:55.797Z,81.1103
2023-05-10T03:39:57.824Z,80.2256
2023-05-10T03:41:00.366Z,80.7105
2023-05-10T03:42:04.184Z,80.7360
2023-05-10T03:43:04.881Z,79.1284
2023-05-10T03:44:08.480Z,78.4322
2023-05-10T03:45:09.514Z,78.8719
2023-05-10T03:46:12.473Z,79.1300
2023-05-10T03:47:14.172Z,79.8503
2023-05-10T03:48:16.553Z,79.8950
2023-05-10T03:49:18.866Z,80.6689
2023-05-10T03:50:21.354Z,81.0454
2023-05-10T03:51:23.514Z,80.5096
2023-05-10T03:52:25.995Z,79.9737
2023-05-10T03:53:28.246Z,80.1673
2023-05-10T03:54:30.537Z,80.7653
2023-05-10T03:55:32.870Z,80.6994
2023-05-10T03:56:35.421Z,80.5130
2023-05-10T03:57:37.722Z,79.8013
2023-05-10T03:58:40.316Z,79.5872
2023-05-10T03:59:42.221Z,80.1613
2023-05-10T04:00:46.202Z,79.3017
2023-05-10T04:01:47.889Z,78.4414
2023-05-10T04:02:49.946Z,78.6479
2023-05-10T04:03:51.701Z,78.5376
2023-05-10T04:04:54.878Z,78.3446
2023-05-10T04:05:56.245Z,78.9181
2023-05-10T04:06:59.647Z,79.9700
2023-05-10T04:08:00.914Z,79.3467
2023-05-10T04:09:04.193Z,78.7877
2023-05-10T04:10:05.589Z,79.3030
2023-05-10T04:11:07.908Z,80.5982
2023-05-10T04:12:11.143Z,81.8024
2023-05-10T04:13:13.542Z,81.8489
2023-05-10T04:14:14.910Z,81.6055
2023-05-10T04:15:17.308Z,82.1654
2023-05-10T04:16:19.679Z,81.0998
2023-05-10T04:17:21.958Z,81.4592
2023-05-10T04:18:24.269Z,82.7091
2023-05-10T04:19:27.583Z,82.6396
2023-05-10T04:20:29.092Z,81.4556
2023-05-10T04:21:31.396Z,81.3127
2023-05-10T04:22:33.588Z,80.2703
2023-05-10T04:23:35.949Z,79.5672
2023-05-10T04:24:38.277Z,79.8218
2023-05-10T04:25:40.594Z,79.2862
2023-05-10T04:26:42.923Z,78.6169
2023-05-10T04:27:45.263Z,77.7380
2023-05-10T04:28:47.684Z,77.3875
2023-05-10T04:29:49.977Z,78.5044
2023-05-10T04:30:52.408Z,79.2764
2023-05-10T04:31:54.780Z,79.7424
2023-05-10T04:32:58.174Z,79.6734
2023-05-10T04:33:59.347Z,80.2714
2023-05-10T04:35:02.664Z,79.9667
2023-05-10T04:36:04.145Z,80.5691
2023-05-10T04:37:06.295Z,81.8823
2023-05-10T04:38:11.568Z,82.5008
2023-05-10T04:39:10.950Z,82.7967
2023-05-10T04:40:13.295Z,82.8450
2023-05-10T04:41:16.074Z,82.9918
2023-05-10T04:42:18.882Z,83.8846
2023-05-10T04:43:20.572Z,83.1210
2023-05-10T04:44:22.631Z,82.3589
2023-05-10T04:45:24.966Z,81.7747
2023-05-10T04:46:27.381Z,82.0897
2023-05-10T04:47:29.622Z,82.5635
2023-05-10T04:48:32.386Z,84.2899
2023-05-10T04:49:34.310Z,82.8644
2023-05-10T04:50:36.578Z,82.0278
2023-05-10T04:51:38.978Z,82.0547
2023-05-10T04:52:41.354Z,82.6894
2023-05-10T04:53:48.586Z,81.5044
2023-05-10T04:54:45.906Z,81.1679
2023-05-10T04:55:48.256Z,81.2853
2023-05-10T04:56:50.566Z,80.4758
2023-05-10T04:57:52.915Z,81.1057
2023-05-10T04:58:55.296Z,82.1735
2023-05-10T04:59:57.582Z,82.5764
2023-05-10T05:00:59.892Z,81.5093
2023-05-10T05:02:02.308Z,81.4687
2023-05-10T05:03:04.606Z,80.6816
2023-05-10T05:04:06.898Z,81.5081
2023-05-10T05:05:09.248Z,82.4136
2023-05-10T05:06:11.601Z,82.3725
2023-05-10T05:07:23.123Z,82.3921
2023-05-10T05:08:16.228Z,80.5339
2023-05-10T05:09:18.565Z,80.3750
2023-05-10T05:10:20.849Z,80.9896
2023-05-10T05:11:23.180Z,80.4407
2023-05-10T05:12:25.534Z,80.1494
2023-05-10T05:13:27.900Z,80.6513
2023-05-10T05:14:30.179Z,80.1022
2023-05-10T05:15:32.550Z,80.4447
2023-05-10T05:16:35.031Z,81.1554
2023-05-10T05:17:37.184Z,80.7129
2023-05-10T05:18:39.526Z,79.5276
2023-05-10T05:19:41.841Z,78.4061
2023-05-10T05:20:44.151Z,78.2921
2023-05-10T05:21:46.518Z,78.9558
2023-05-10T05:22:48.810Z,78.9017
2023-05-10T05:23:51.156Z,79.2322
2023-05-10T05:24:53.480Z,80.7720
2023-05-10T05:25:55.832Z,81.4283
2023-05-10T05:26:58.170Z,81.0123
2023-05-10T05:28:00.541Z,80.9594
2023-05-10T05:29:02.815Z,79.7254
2023-05-10T05:30:05.166Z,79.2927
2023-05-10T05:31:07.585Z,79.7674
2023-05-10T05:32:09.911Z,80.0306
2023-05-10T05:33:12.162Z,80.3665
2023-05-10T05:34:14.624Z,79.4109
2023-05-10T05:35:17.116Z,79.4154
2023-05-10T05:36:19.206Z,80.5406
2023-05-10T05:37:21.548Z,81.3180
2023-05-10T05:38:23.865Z,81.4236
2023-05-10T05:39:26.190Z,81.9984
2023-05-10T05:40:28.533Z,80.6574
2023-05-10T05:41:30.866Z,80.0910
2023-05-10T05:42:33.213Z,80.1447
2023-05-10T05:43:38.028Z,80.1249
2023-05-10T05:44:37.882Z,80.8983
2023-05-10T05:45:40.216Z,80.7523
2023-05-10T05:46:42.577Z,80.6789
2023-05-10T05:47:44.992Z,81.0528
2023-05-10T05:48:47.216Z,81.2457
2023-05-10T05:49:49.808Z,80.6883
2023-05-10T05:50:51.859Z,80.2068
2023-05-10T05:51:54.481Z,79.5057
2023-05-10T05:52:56.558Z,80.2265
2023-05-10T05:53:59.322Z,79.5862
2023-05-10T05:55:01.294Z,80.1634
2023-05-10T05:56:03.515Z,79.5311
2023-05-10T05:57:06.146Z,80.1538
2023-05-10T05:58:08.192Z,79.0526
2023-05-10T05:59:11.141Z,79.7922
2023-05-10T06:00:12.844Z,81.0027
2023-05-10T06:01:15.192Z,81.5681
2023-05-10T06:02:17.585Z,81.3050
2023-05-10T06:03:20.014Z,79.4983
2023-05-10T06:04:22.257Z,78.7259
2023-05-10T06:05:24.527Z,78.4637
2023-05-10T06:06:26.937Z,79.1840
2023-05-10T06:07:29.276Z,80.0872
2023-05-10T06:08:31.765Z,80.3535
2023-05-10T06:09:33.868Z,81.0965
2023-05-10T06:10:36.202Z,80.5631
2023-05-10T06:11:38.676Z,79.2557
2023-05-10T06:12:41.106Z,78.3433
2023-05-10T06:13:43.257Z,78.5828
2023-05-10T06:14:45.614Z,79.3025
2023-05-10T06:15:47.894Z,79.0473
2023-05-10T06:16:50.394Z,79.3355
2023-05-10T06:17:52.585Z,79.8761
2023-05-10T06:18:54.885Z,79.3955
2023-05-10T06:19:57.259Z,79.0999
2023-05-10T06:20:59.619Z,78.6256
2023-05-10T06:22:01.990Z,79.4151
2023-05-10T06:23:04.259Z,78.8330
2023-05-10T06:24:06.604Z,77.5609
2023-05-10T06:25:09.107Z,78.5313
2023-05-10T06:26:11.212Z,78.5000
2023-05-10T06:27:13.633Z,78.9328
2023-05-10T06:28:16.005Z,80.0369
2023-05-10T06:29:18.238Z,80.2313
2023-05-10T06:30:20.561Z,78.1640
2023-05-10T06:31:22.974Z,77.6588
2023-05-10T06:32:25.269Z,78.0891
2023-05-10T06:33:27.540Z,79.2796
2023-05-10T06:34:29.892Z,79.8903
2023-05-10T06:35:32.208Z,79.1023
2023-05-10T06:36:34.569Z,80.5030
2023-05-10T06:37:36.891Z,80.9559
2023-05-10T06:38:39.205Z,80.3493
2023-05-10T06:39:41.543Z,79.3817
2023-05-10T06:40:46.196Z,79.1902
2023-05-10T06:41:47.255Z,78.9562
2023-05-10T06:42:48.563Z,78.8915
2023-05-10T06:43:50.888Z,78.5478
2023-05-10T06:44:53.217Z,78.0011
2023-05-10T06:45:55.587Z,78.7352
2023-05-10T06:46:57.884Z,79.3535
2023-05-10T06:48:00.333Z,80.0077
2023-05-10T06:49:02.551Z,78.9539
2023-05-10T06:50:04.896Z,79.3516
2023-05-10T06:51:07.237Z,76.8374
2023-05-10T06:52:09.561Z,77.5101
2023-05-10T06:53:11.918Z,77.9201
2023-05-10T06:54:14.236Z,76.5331
2023-05-10T06:55:16.711Z,76.9329
2023-05-10T06:56:18.942Z,78.5020
2023-05-10T06:57:31.435Z,79.0260
2023-05-10T06:58:23.574Z,78.1319
2023-05-10T06:59:25.969Z,77.5010
2023-05-10T07:00:28.270Z,77.3276
2023-05-10T07:01:30.667Z,78.3343
2023-05-10T07:02:32.959Z,78.6919
2023-05-10T07:03:35.275Z,78.5166
2023-05-10T07:04:37.625Z,78.7955
2023-05-10T07:05:39.964Z,79.6926
2023-05-10T07:06:42.299Z,79.6792
2023-05-10T07:07:44.609Z,79.6591
2023-05-10T07:08:46.934Z,78.1400
2023-05-10T07:09:49.262Z,78.2070
2023-05-10T07:10:51.616Z,78.4934
2023-05-10T07:11:53.962Z,78.5185
2023-05-10T07:12:56.358Z,77.2854
2023-05-10T07:13:58.595Z,77.4846
2023-05-10T07:15:01.016Z,78.3376
2023-05-10T07:16:03.696Z,78.0772
2023-05-10T07:17:05.686Z,78.1629
2023-05-10T07:18:08.047Z,76.8197
2023-05-10T07:19:10.286Z,77.0045
2023-05-10T07:20:12.591Z,78.0699
2023-05-10T07:21:15.203Z,77.6128
2023-05-10T07:22:17.285Z,77.6316
2023-05-10T07:23:19.795Z,77.1957
2023-05-10T07:24:21.934Z,75.4145
2023-05-10T07:25:24.633Z,76.3029
2023-05-10T07:26:26.602Z,75.1284
2023-05-10T07:27:28.973Z,75.0012
2023-05-10T07:28:31.296Z,75.2375
2023-05-10T07:29:33.602Z,75.9878
2023-05-10T07:30:36.272Z,76.5030
2023-05-10T07:31:38.352Z,77.4443
2023-05-10T07:32:40.759Z,77.9851
2023-05-10T07:33:43.047Z,77.8465
2023-05-10T07:34:45.476Z,77.3582
2023-05-10T07:35:47.608Z,76.5012
2023-05-10T07:36:50.180Z,75.6578
2023-05-10T07:37:52.270Z,75.0008
2023-05-10T07:38:54.723Z,74.8222
2023-05-10T07:39:56.963Z,74.7588
2023-05-10T07:40:59.589Z,75.6025
2023-05-10T07:42:01.616Z,76.8889
2023-05-10T07:43:05.336Z,77.5324
2023-05-10T07:44:06.378Z,77.0480
2023-05-10T07:45:08.605Z,77.7597
2023-05-10T07:46:11.461Z,77.9410
2023-05-10T07:47:13.395Z,76.5994
2023-05-10T07:48:15.740Z,78.3335
2023-05-10T07:49:18.024Z,78.8851
2023-05-10T07:50:20.309Z,78.0589
2023-05-10T07:51:22.670Z,78.0025
2023-05-10T07:52:25.003Z,76.7787
2023-05-10T07:53:27.321Z,78.4786
2023-05-10T07:54:29.675Z,78.9527
2023-05-10T07:55:32.011Z,78.5470
2023-05-10T07:56:34.414Z,78.5901
2023-05-10T07:57:36.704Z,77.2346
2023-05-10T07:58:39.018Z,78.1167
2023-05-10T07:59:41.352Z,78.7229
2023-05-10T08:00:43.678Z,78.2121
2023-05-10T08:01:46.040Z,77.6295
2023-05-10T08:02:48.440Z,78.7613
2023-05-10T08:03:50.749Z,79.9978
2023-05-10T08:04:52.996Z,79.3433
2023-05-10T08:05:55.312Z,77.7944
2023-05-10T08:06:57.659Z,78.7590
2023-05-10T08:08:00.064Z,79.5049
2023-05-10T08:09:02.415Z,80.0621
2023-05-10T08:10:05.410Z,80.7129
2023-05-10T08:11:06.967Z,79.6597
2023-05-10T08:12:09.620Z,79.8719
2023-05-10T08:13:11.676Z,78.9010
2023-05-10T08:14:13.986Z,76.8252
2023-05-10T08:15:16.553Z,76.8659
2023-05-10T08:16:18.730Z,75.7174
2023-05-10T08:17:22.100Z,78.0329
2023-05-10T08:18:23.376Z,78.9397
2023-05-10T08:19:25.633Z,78.1840
2023-05-10T08:20:27.971Z,78.5875
2023-05-10T08:21:30.307Z,80.0580
2023-05-10T08:22:32.640Z,80.6633
2023-05-10T08:23:34.993Z,81.7323
2023-05-10T08:24:37.315Z,82.3850
2023-05-10T08:25:39.638Z,82.2974
2023-05-10T08:26:41.950Z,81.5615
2023-05-10T08:27:44.298Z,80.1249
2023-05-10T08:28:46.632Z,80.5815
2023-05-10T08:29:50.462Z,80.7733
2023-05-10T08:30:51.265Z,80.8343
2023-05-10T08:31:53.688Z,80.3243
2023-05-10T08:32:55.970Z,80.3027
2023-05-10T08:33:58.360Z,80.8034
2023-05-10T08:35:00.608Z,80.7767
2023-05-10T08:36:02.947Z,80.7900
2023-05-10T08:37:05.265Z,80.4905
2023-05-10T08:38:07.588Z,77.7466
2023-05-10T08:39:22.837Z,76.6159
2023-05-10T08:40:12.275Z,77.5446
2023-05-10T08:41:14.585Z,78.0786
2023-05-10T08:42:16.925Z,77.1903
2023-05-10T08:43:19.295Z,77.4981
2023-05-10T08:44:21.642Z,78.1575
2023-05-10T08:45:23.941Z,78.4916
2023-05-10T08:46:26.341Z,79.2946
2023-05-10T08:47:28.624Z,79.6369
2023-05-10T08:48:30.918Z,79.4548
2023-05-10T08:49:33.308Z,79.1712
2023-05-10T08:50:35.595Z,79.5671
2023-05-10T08:51:37.910Z,77.6194
2023-05-10T08:52:40.249Z,76.6549
2023-05-10T08:53:42.573Z,77.1114
2023-05-10T08:54:44.953Z,77.7765
2023-05-10T08:55:47.230Z,77.2841
2023-05-10T08:56:49.982Z,78.3054
2023-05-10T08:57:51.902Z,78.3844
2023-05-10T08:58:54.365Z,76.1471
2023-05-10T08:59:56.652Z,75.7763
2023-05-10T09:00:58.937Z,74.7211
2023-05-10T09:02:01.244Z,73.9006
2023-05-10T09:03:03.633Z,73.4576
2023-05-10T09:04:05.981Z,73.2497
2023-05-10T09:05:08.395Z,74.3328
2023-05-10T09:06:10.756Z,75.2220
2023-05-10T09:07:12.973Z,75.8902
2023-05-10T09:08:15.249Z,75.2042
2023-05-10T09:09:17.555Z,75.7856
2023-05-10T09:10:19.989Z,76.4436
2023-05-10T09:11:22.238Z,76.5049
2023-05-10T09:12:25.774Z,77.2939
2023-05-10T09:13:26.966Z,77.5002
2023-05-10T09:14:29.261Z,76.6221
2023-05-10T09:15:31.571Z,74.9647
2023-05-10T09:16:34.245Z,72.8487
2023-05-10T09:17:36.586Z,71.7499
2023-05-10T09:18:38.688Z,75.1545
2023-05-10T09:19:41.683Z,77.4248
2023-05-10T09:20:43.322Z,77.7835
2023-05-10T09:21:46.024Z,77.0158
2023-05-10T09:22:47.940Z,74.8480
2023-05-10T09:23:50.821Z,74.1324
2023-05-10T09:24:52.674Z,73.2118
2023-05-10T09:25:55.032Z,72.7858
2023-05-10T09:26:57.303Z,73.1843
2023-05-10T09:27:59.567Z,72.8633
2023-05-10T09:29:01.888Z,72.9412
2023-05-10T09:30:04.271Z,72.1450
2023-05-10T09:31:06.728Z,73.1016
2023-05-10T09:32:08.928Z,73.3829
2023-05-10T09:33:12.142Z,73.1585
2023-05-10T09:34:13.640Z,71.4385
2023-05-10T09:35:16.289Z,70.7403
2023-05-10T09:36:18.247Z,71.0534
2023-05-10T09:37:20.595Z,71.3655
2023-05-10T09:38:22.937Z,72.2347
2023-05-10T09:39:25.232Z,75.6297
2023-05-10T09:40:28.572Z,76.7517
2023-05-10T09:41:30.124Z,76.9885
2023-05-10T09:42:32.296Z,76.5110
2023-05-10T09:43:34.636Z,76.0121
2023-05-10T09:44:37.021Z,75.9703
2023-05-10T09:45:39.441Z,76.4535
2023-05-10T09:46:41.806Z,75.5950
2023-05-10T09:47:44.625Z,75.0964
2023-05-10T09:48:46.314Z,75.0776
2023-05-10T09:49:48.875Z,74.8764
2023-05-10T09:50:51.065Z,73.3503
2023-05-10T09:51:53.483Z,71.6906
2023-05-10T09:52:55.825Z,71.8819
2023-05-10T09:53:57.988Z,73.6134
2023-05-10T09:55:00.414Z,74.6882
2023-05-10T09:56:02.827Z,75.0291
2023-05-10T09:57:05.000Z,74.3292
2023-05-10T09:58:07.449Z,73.1917
2023-05-10T09:59:09.678Z,73.6560
2023-05-10T10:00:12.070Z,72.9464
2023-05-10T10:01:14.346Z,71.9594
2023-05-10T10:02:17.973Z,73.1922
2023-05-10T10:03:19.588Z,75.1122
2023-05-10T10:04:21.406Z,74.8980
2023-05-10T10:05:23.922Z,73.7195
2023-05-10T10:06:30.068Z,73.4230
2023-05-10T10:07:28.456Z,72.4364
2023-05-10T10:08:30.823Z,73.0812
2023-05-10T10:09:33.117Z,73.8986
2023-05-10T10:10:35.446Z,74.3636
2023-05-10T10:11:37.692Z,73.8122
2023-05-10T10:12:40.286Z,73.3582
2023-05-10T10:13:42.508Z,72.0699
2023-05-10T10:14:44.848Z,71.7576
2023-05-10T10:15:47.899Z,70.1860
2023-05-10T10:17:05.873Z,70.0682
2023-05-10T10:17:51.793Z,70.0971
2023-05-10T10:18:54.107Z,69.4544
2023-05-10T10:19:56.434Z,70.5021
2023-05-10T10:20:58.722Z,71.2391
2023-05-10T10:22:01.459Z,70.8712
2023-05-10T10:23:03.399Z,69.8077
2023-05-10T10:24:05.804Z,71.2468
2023-05-10T10:25:08.089Z,71.8540
2023-05-10T10:26:10.429Z,71.3773
2023-05-10T10:27:12.759Z,69.7356
2023-05-10T10:28:15.151Z,68.6840
2023-05-10T10:29:17.438Z,68.2560
2023-05-10T10:30:19.840Z,67.4755
2023-05-10T10:31:22.337Z,67.8104
2023-05-10T10:32:24.583Z,69.3018
2023-05-10T10:33:28.772Z,70.7638
2023-05-10T10:34:29.194Z,70.5318
2023-05-10T10:35:31.659Z,69.1867
2023-05-10T10:36:33.913Z,69.8399
2023-05-10T10:37:36.311Z,68.8963
2023-05-10T10:38:38.555Z,67.8424
2023-05-10T10:39:40.850Z,67.4775
2023-05-10T10:40:43.178Z,67.8602
2023-05-10T10:41:45.686Z,68.4853
2023-05-10T10:42:48.189Z,70.1066
2023-05-10T10:43:50.777Z,70.6132
2023-05-10T10:44:53.358Z,70.5119
2023-05-10T10:45:54.893Z,70.0953
2023-05-10T10:46:57.330Z,69.2217
2023-05-10T10:48:00.273Z,68.7369
2023-05-10T10:49:01.906Z,69.7138
2023-05-10T10:50:04.233Z,68.1089
2023-05-10T10:51:07.217Z,68.1145
2023-05-10T10:52:08.905Z,71.0644
2023-05-10T10:53:11.342Z,70.5772
2023-05-10T10:54:13.594Z,69.6890
2023-05-10T10:55:16.397Z,69.4888
2023-05-10T10:56:18.263Z,70.0263
2023-05-10T10:57:21.157Z,70.3300
2023-05-10T10:58:22.975Z,71.8550
2023-05-10T10:59:25.308Z,72.1251
2023-05-10T11:00:27.715Z,69.1460
2023-05-10T11:01:29.968Z,67.5187
2023-05-10T11:02:32.653Z,66.2410
2023-05-10T11:03:35.080Z,66.2029
2023-05-10T11:04:37.064Z,66.3944
2023-05-10T11:05:40.109Z,66.6893
2023-05-10T11:06:41.663Z,65.7993
2023-05-10T11:07:44.643Z,68.1307
2023-05-10T11:08:46.340Z,69.7894
2023-05-10T11:09:48.697Z,70.0942
2023-05-10T11:10:51.001Z,70.5746
2023-05-10T11:11:53.596Z,71.5710
2023-05-10T11:12:55.677Z,70.9835
2023-05-10T11:13:58.497Z,70.2774
2023-05-10T11:15:00.352Z,69.6479
2023-05-10T11:16:03.008Z,69.9399
2023-05-10T11:17:05.457Z,70.2761
2023-05-10T11:18:07.764Z,69.8539
2023-05-10T11:19:10.070Z,68.8268
2023-05-10T11:20:12.733Z,67.1267
2023-05-10T11:21:14.366Z,67.4170
2023-05-10T11:22:16.685Z,69.6674
2023-05-10T11:23:19.073Z,69.8765
2023-05-10T11:24:21.449Z,68.7134
2023-05-10T11:25:25.021Z,66.8008
2023-05-10T11:26:27.240Z,64.7938
2023-05-10T11:27:29.030Z,63.6138
2023-05-10T11:28:31.667Z,64.6722
2023-05-10T11:29:33.108Z,67.8904
2023-05-10T11:30:35.420Z,69.9560
2023-05-10T11:31:37.712Z,69.1480
2023-05-10T11:32:40.291Z,69.7437
2023-05-10T11:33:43.524Z,69.4846
2023-05-10T11:34:44.921Z,69.6242
2023-05-10T11:35:47.057Z,69.3879
2023-05-10T11:36:50.036Z,69.7673
2023-05-10T11:37:51.712Z,71.1397
2023-05-10T11:38:54.065Z,71.0698
2023-05-10T11:39:57.582Z,71.7294
2023-05-10T11:40:59.185Z,70.9183
2023-05-10T11:42:01.259Z,68.7393
2023-05-10T11:43:04.096Z,68.0903
2023-05-10T11:44:05.885Z,65.2860
2023-05-10T11:45:08.094Z,64.1009
2023-05-10T11:46:10.600Z,63.0740
2023-05-10T11:47:13.132Z,63.7170
2023-05-10T11:48:15.183Z,64.3481
2023-05-10T11:49:17.436Z,63.5582
2023-05-10T11:50:19.982Z,62.5821
2023-05-10T11:51:22.080Z,62.6395
2023-05-10T11:52:24.973Z,62.3823
2023-05-10T11:53:26.863Z,63.9576
2023-05-10T11:54:30.141Z,66.0177
2023-05-10T11:55:31.457Z,65.0440
2023-05-10T11:56:34.506Z,64.1263
2023-05-10T11:57:36.101Z,63.0178
2023-05-10T11:58:39.183Z,62.7851
2023-05-10T11:59:43.075Z,63.8986
2023-05-10T12:00:43.440Z,65.6582
2023-05-10T12:01:45.457Z,65.1132
2023-05-10T12:02:47.940Z,63.6723
2023-05-10T12:03:50.654Z,64.9816
2023-05-10T12:04:53.145Z,65.1877
2023-05-10T12:05:55.474Z,65.2833
2023-05-10T12:06:57.293Z,67.1760
2023-05-10T12:07:59.479Z,68.1451
2023-05-10T12:09:01.853Z,68.7261
2023-05-10T12:10:04.178Z,69.6538
2023-05-10T12:11:06.557Z,69.0615
2023-05-10T12:12:09.374Z,70.3604
2023-05-10T12:13:11.185Z,71.8836
2023-05-10T12:14:13.531Z,71.3094
2023-05-10T12:15:15.870Z,72.0278
2023-05-10T12:16:18.271Z,72.6000
2023-05-10T12:17:20.531Z,73.1051
2023-05-10T12:18:22.969Z,73.8018
2023-05-10T12:19:25.210Z,74.1934
2023-05-10T12:20:27.572Z,73.8675
2023-05-10T12:21:29.905Z,73.6258
2023-05-10T12:22:32.271Z,73.4081
2023-05-10T12:23:34.659Z,73.0010
2023-05-10T12:24:36.917Z,72.8995
2023-05-10T12:25:39.731Z,73.1006
2023-05-10T12:26:41.954Z,73.3677
2023-05-10T12:27:43.963Z,73.8954
2023-05-10T12:28:46.237Z,74.1273
2023-05-10T12:29:48.572Z,74.1159
2023-05-10T12:30:51.035Z,74.0798
2023-05-10T12:31:53.356Z,75.5980
2023-05-10T12:32:55.726Z,75.8378
2023-05-10T12:33:57.923Z,75.0110